sensor_id;sensor_type;location;lat;lon;timestamp;temperature;humidity
11304;DHT22;5707;49.588;12.148;2024-03-23T00:55:59;7.00;99.90
11304;DHT22;5707;49.588;12.148;2024-03-23T00:58:24;7.10;99.90
11304;DHT22;5707;49.588;12.148;2024-03-23T01:00:50;7.00;99.90
11304;DHT22;5707;49.588;12.148;2024-03-23T01:03:16;6.90;99.90
11304;DHT22;5707;49.588;12.148;2024-03-23T01:05:41;6.80;99.90
11304;DHT22;5707;49.588;12.148;2024-03-23T01:08:07;7.00;99.90
11304;DHT22;5707;49.588;12.148;2024-03-23T01:10:32;7.10;99.90
11304;DHT22;5707;49.588;12.148;2024-03-23T01:12:58;7.10;99.90
11304;DHT22;5707;49.588;12.148;2024-03-23T01:15:23;7.20;99.90
11304;DHT22;5707;49.588;12.148;2024-03-23T01:17:49;7.40;99.90
11304;DHT22;5707;49.588;12.148;2024-03-23T01:20:14;7.70;99.90
11304;DHT22;5707;49.588;12.148;2024-03-23T01:22:40;7.80;99.90
11304;DHT22;5707;49.588;12.148;2024-03-23T01:25:06;7.90;99.90
11304;DHT22;5707;49.588;12.148;2024-03-23T01:27:31;8.00;99.90
11304;DHT22;5707;49.588;12.148;2024-03-23T01:29:57;7.90;99.90
11304;DHT22;5707;49.588;12.148;2024-03-23T01:32:22;7.70;99.90
11304;DHT22;5707;49.588;12.148;2024-03-23T01:34:48;7.50;99.90
11304;DHT22;5707;49.588;12.148;2024-03-23T01:37:13;7.30;99.90
11304;DHT22;5707;49.588;12.148;2024-03-23T01:39:39;7.20;99.90
11304;DHT22;5707;49.588;12.148;2024-03-23T01:42:04;7.00;99.90
11304;DHT22;5707;49.588;12.148;2024-03-23T01:44:31;6.90;99.90
11304;DHT22;5707;49.588;12.148;2024-03-23T01:46:56;6.80;99.90
11304;DHT22;5707;49.588;12.148;2024-03-23T01:49:22;6.70;99.90
11304;DHT22;5707;49.588;12.148;2024-03-23T01:51:47;6.60;99.90
11304;DHT22;5707;49.588;12.148;2024-03-23T01:54:13;6.60;99.90
11304;DHT22;5707;49.588;12.148;2024-03-23T01:56:39;6.60;99.90
11304;DHT22;5707;49.588;12.148;2024-03-23T01:59:08;6.50;99.90
11304;DHT22;5707;49.588;12.148;2024-03-23T02:01:35;6.40;99.90
11304;DHT22;5707;49.588;12.148;2024-03-23T02:04:04;6.40;99.90
11304;DHT22;5707;49.588;12.148;2024-03-23T02:06:30;6.40;99.90
11304;DHT22;5707;49.588;12.148;2024-03-23T02:08:56;6.50;99.90
11304;DHT22;5707;49.588;12.148;2024-03-23T02:11:22;6.40;99.90
11304;DHT22;5707;49.588;12.148;2024-03-23T02:13:47;6.50;99.90
11304;DHT22;5707;49.588;12.148;2024-03-23T02:16:13;6.50;99.90
11304;DHT22;5707;49.588;12.148;2024-03-23T02:18:38;6.50;99.90
11304;DHT22;5707;49.588;12.148;2024-03-23T02:21:04;6.50;99.90
11304;DHT22;5707;49.588;12.148;2024-03-23T02:23:30;6.70;99.90
11304;DHT22;5707;49.588;12.148;2024-03-23T02:25:56;6.80;99.90
11304;DHT22;5707;49.588;12.148;2024-03-23T02:28:21;6.90;99.90
11304;DHT22;5707;49.588;12.148;2024-03-23T02:30:49;6.90;99.90
11304;DHT22;5707;49.588;12.148;2024-03-23T02:33:14;7.00;99.90
11304;DHT22;5707;49.588;12.148;2024-03-23T02:35:40;7.20;99.90
11304;DHT22;5707;49.588;12.148;2024-03-23T02:38:06;7.30;99.90
11304;DHT22;5707;49.588;12.148;2024-03-23T02:40:31;7.30;99.90
11304;DHT22;5707;49.588;12.148;2024-03-23T02:42:57;7.40;99.90
11304;DHT22;5707;49.588;12.148;2024-03-23T02:45:22;7.40;99.90
11304;DHT22;5707;49.588;12.148;2024-03-23T02:47:48;7.30;99.90
11304;DHT22;5707;49.588;12.148;2024-03-23T02:50:20;7.40;99.90
11304;DHT22;5707;49.588;12.148;2024-03-23T02:52:46;7.40;99.90
11304;DHT22;5707;49.588;12.148;2024-03-23T02:55:12;7.50;99.90
11304;DHT22;5707;49.588;12.148;2024-03-23T02:57:37;7.50;99.90
11304;DHT22;5707;49.588;12.148;2024-03-23T03:00:04;7.40;99.90
11304;DHT22;5707;49.588;12.148;2024-03-23T03:02:30;7.40;99.90
11304;DHT22;5707;49.588;12.148;2024-03-23T03:04:56;7.20;99.90
11304;DHT22;5707;49.588;12.148;2024-03-23T03:07:22;7.10;99.90
11304;DHT22;5707;49.588;12.148;2024-03-23T03:09:47;6.90;99.90
11304;DHT22;5707;49.588;12.148;2024-03-23T03:12:13;7.00;99.90
11304;DHT22;5707;49.588;12.148;2024-03-23T03:14:38;6.90;99.90
11304;DHT22;5707;49.588;12.148;2024-03-23T03:17:04;6.90;99.90
11304;DHT22;5707;49.588;12.148;2024-03-23T03:19:30;6.90;99.90
11304;DHT22;5707;49.588;12.148;2024-03-23T03:21:55;6.80;99.90
11304;DHT22;5707;49.588;12.148;2024-03-23T03:24:21;6.80;99.90
11304;DHT22;5707;49.588;12.148;2024-03-23T03:26:47;6.80;99.90
11304;DHT22;5707;49.588;12.148;2024-03-23T03:29:12;6.80;99.90
11304;DHT22;5707;49.588;12.148;2024-03-23T03:31:39;6.80;99.90
11304;DHT22;5707;49.588;12.148;2024-03-23T03:34:04;6.90;99.90
11304;DHT22;5707;49.588;12.148;2024-03-23T03:36:30;6.80;99.90
11304;DHT22;5707;49.588;12.148;2024-03-23T03:38:55;6.70;99.90
11304;DHT22;5707;49.588;12.148;2024-03-23T03:41:21;6.80;99.90
11304;DHT22;5707;49.588;12.148;2024-03-23T03:43:47;6.90;99.90
11304;DHT22;5707;49.588;12.148;2024-03-23T03:46:12;7.10;99.90
11304;DHT22;5707;49.588;12.148;2024-03-23T03:48:38;7.20;99.90
11304;DHT22;5707;49.588;12.148;2024-03-23T03:51:04;7.40;99.90
11304;DHT22;5707;49.588;12.148;2024-03-23T03:53:29;7.50;99.90
11304;DHT22;5707;49.588;12.148;2024-03-23T03:55:56;7.60;99.90
11304;DHT22;5707;49.588;12.148;2024-03-23T03:58:21;7.80;99.90
11304;DHT22;5707;49.588;12.148;2024-03-23T04:00:47;7.90;99.90
11304;DHT22;5707;49.588;12.148;2024-03-23T04:03:13;8.00;99.90
11304;DHT22;5707;49.588;12.148;2024-03-23T04:05:38;8.10;99.90
11304;DHT22;5707;49.588;12.148;2024-03-23T04:08:05;8.10;99.90
11304;DHT22;5707;49.588;12.148;2024-03-23T04:10:31;8.10;99.90
11304;DHT22;5707;49.588;12.148;2024-03-23T04:12:56;8.20;99.90
11304;DHT22;5707;49.588;12.148;2024-03-23T04:15:22;8.20;99.90
11304;DHT22;5707;49.588;12.148;2024-03-23T04:17:48;8.20;99.90
11304;DHT22;5707;49.588;12.148;2024-03-23T04:20:13;8.20;99.90
11304;DHT22;5707;49.588;12.148;2024-03-23T04:22:42;8.20;99.90
11304;DHT22;5707;49.588;12.148;2024-03-23T04:25:08;8.30;99.90
11304;DHT22;5707;49.588;12.148;2024-03-23T04:27:36;8.30;99.90
11304;DHT22;5707;49.588;12.148;2024-03-23T04:30:02;8.20;99.90
11304;DHT22;5707;49.588;12.148;2024-03-23T04:32:29;8.20;99.90
11304;DHT22;5707;49.588;12.148;2024-03-23T04:34:55;8.20;99.90
11304;DHT22;5707;49.588;12.148;2024-03-23T04:37:21;8.20;99.90
11304;DHT22;5707;49.588;12.148;2024-03-23T04:39:47;8.10;99.90
11304;DHT22;5707;49.588;12.148;2024-03-23T04:42:15;8.00;99.90
11304;DHT22;5707;49.588;12.148;2024-03-23T04:44:40;7.90;99.90
11304;DHT22;5707;49.588;12.148;2024-03-23T04:47:06;7.70;99.90
11304;DHT22;5707;49.588;12.148;2024-03-23T04:49:31;7.60;99.90
11304;DHT22;5707;49.588;12.148;2024-03-23T04:51:57;7.60;99.90
11304;DHT22;5707;49.588;12.148;2024-03-23T04:54:22;7.60;99.90
11304;DHT22;5707;49.588;12.148;2024-03-23T04:56:49;7.60;99.90
11304;DHT22;5707;49.588;12.148;2024-03-23T04:59:14;7.70;99.90
11304;DHT22;5707;49.588;12.148;2024-03-23T05:01:40;7.80;99.90
11304;DHT22;5707;49.588;12.148;2024-03-23T05:04:07;7.70;99.90
11304;DHT22;5707;49.588;12.148;2024-03-23T05:06:33;7.60;99.90
11304;DHT22;5707;49.588;12.148;2024-03-23T05:09:00;7.60;99.90
11304;DHT22;5707;49.588;12.148;2024-03-23T05:11:27;7.50;99.90
11304;DHT22;5707;49.588;12.148;2024-03-23T05:13:53;7.40;99.90
11304;DHT22;5707;49.588;12.148;2024-03-23T05:16:18;7.40;99.90
11304;DHT22;5707;49.588;12.148;2024-03-23T05:18:44;7.30;99.90
11304;DHT22;5707;49.588;12.148;2024-03-23T05:21:09;7.20;99.90
11304;DHT22;5707;49.588;12.148;2024-03-23T05:23:35;7.10;99.90
11304;DHT22;5707;49.588;12.148;2024-03-23T05:26:00;7.00;99.90
11304;DHT22;5707;49.588;12.148;2024-03-23T05:28:26;6.90;99.90
11304;DHT22;5707;49.588;12.148;2024-03-23T05:30:53;6.90;99.90
11304;DHT22;5707;49.588;12.148;2024-03-23T05:33:19;7.00;99.90
11304;DHT22;5707;49.588;12.148;2024-03-23T05:35:45;7.00;99.90
11304;DHT22;5707;49.588;12.148;2024-03-23T05:38:11;7.00;99.90
11304;DHT22;5707;49.588;12.148;2024-03-23T05:40:37;7.10;99.90
11304;DHT22;5707;49.588;12.148;2024-03-23T05:43:06;7.20;99.90
11304;DHT22;5707;49.588;12.148;2024-03-23T05:45:31;7.30;99.90
11304;DHT22;5707;49.588;12.148;2024-03-23T05:47:57;7.40;99.90
11304;DHT22;5707;49.588;12.148;2024-03-23T05:50:23;7.60;99.90
11304;DHT22;5707;49.588;12.148;2024-03-23T05:52:49;7.80;99.90
11304;DHT22;5707;49.588;12.148;2024-03-23T05:55:15;7.90;99.90
11304;DHT22;5707;49.588;12.148;2024-03-23T05:57:40;8.00;99.90
11304;DHT22;5707;49.588;12.148;2024-03-23T06:00:06;8.00;99.90
11304;DHT22;5707;49.588;12.148;2024-03-23T06:02:43;8.10;99.90
11304;DHT22;5707;49.588;12.148;2024-03-23T06:05:12;8.10;99.90
11304;DHT22;5707;49.588;12.148;2024-03-23T06:07:38;8.20;99.90
11304;DHT22;5707;49.588;12.148;2024-03-23T06:10:04;8.30;99.90
11304;DHT22;5707;49.588;12.148;2024-03-23T06:12:31;8.40;99.90
11304;DHT22;5707;49.588;12.148;2024-03-23T06:14:57;8.50;99.90
11304;DHT22;5707;49.588;12.148;2024-03-23T06:17:22;8.60;99.90
11304;DHT22;5707;49.588;12.148;2024-03-23T06:19:48;8.60;99.90
11304;DHT22;5707;49.588;12.148;2024-03-23T06:22:14;8.70;99.90
11304;DHT22;5707;49.588;12.148;2024-03-23T06:24:40;8.80;99.90
11304;DHT22;5707;49.588;12.148;2024-03-23T06:27:05;9.00;99.90
11304;DHT22;5707;49.588;12.148;2024-03-23T06:29:31;9.10;99.90
11304;DHT22;5707;49.588;12.148;2024-03-23T06:31:57;9.30;99.90
11304;DHT22;5707;49.588;12.148;2024-03-23T06:34:23;9.50;99.90
11304;DHT22;5707;49.588;12.148;2024-03-23T06:36:50;9.70;99.90
11304;DHT22;5707;49.588;12.148;2024-03-23T06:39:16;10.00;99.90
11304;DHT22;5707;49.588;12.148;2024-03-23T06:42:02;10.30;99.90
11304;DHT22;5707;49.588;12.148;2024-03-23T06:44:28;11.00;99.90
11304;DHT22;5707;49.588;12.148;2024-03-23T06:46:53;11.80;99.90
11304;DHT22;5707;49.588;12.148;2024-03-23T06:49:19;12.50;99.90
11304;DHT22;5707;49.588;12.148;2024-03-23T06:51:45;13.10;99.90
11304;DHT22;5707;49.588;12.148;2024-03-23T06:54:11;13.10;99.90
11304;DHT22;5707;49.588;12.148;2024-03-23T06:56:36;12.80;99.90
11304;DHT22;5707;49.588;12.148;2024-03-23T06:59:02;12.40;99.90
11304;DHT22;5707;49.588;12.148;2024-03-23T07:01:27;11.80;99.90
11304;DHT22;5707;49.588;12.148;2024-03-23T07:03:54;11.40;99.90
11304;DHT22;5707;49.588;12.148;2024-03-23T07:06:20;11.00;99.90
11304;DHT22;5707;49.588;12.148;2024-03-23T07:08:46;10.70;99.90
11304;DHT22;5707;49.588;12.148;2024-03-23T07:11:12;10.50;99.90
11304;DHT22;5707;49.588;12.148;2024-03-23T07:13:37;10.40;99.90
11304;DHT22;5707;49.588;12.148;2024-03-23T07:16:04;10.20;99.90
11304;DHT22;5707;49.588;12.148;2024-03-23T07:18:30;10.10;99.90
11304;DHT22;5707;49.588;12.148;2024-03-23T07:20:56;10.00;99.90
11304;DHT22;5707;49.588;12.148;2024-03-23T07:23:22;9.90;99.90
11304;DHT22;5707;49.588;12.148;2024-03-23T07:28:23;9.80;99.90
11304;DHT22;5707;49.588;12.148;2024-03-23T07:31:02;9.70;99.90
11304;DHT22;5707;49.588;12.148;2024-03-23T07:33:28;9.60;99.90
11304;DHT22;5707;49.588;12.148;2024-03-23T07:35:53;9.50;99.90
11304;DHT22;5707;49.588;12.148;2024-03-23T07:38:19;9.40;99.90
11304;DHT22;5707;49.588;12.148;2024-03-23T07:40:44;9.40;99.90
11304;DHT22;5707;49.588;12.148;2024-03-23T07:43:10;9.50;99.90
11304;DHT22;5707;49.588;12.148;2024-03-23T07:45:36;9.50;99.90
11304;DHT22;5707;49.588;12.148;2024-03-23T07:48:03;9.50;99.90
11304;DHT22;5707;49.588;12.148;2024-03-23T07:50:29;9.50;99.90
11304;DHT22;5707;49.588;12.148;2024-03-23T07:52:54;9.50;99.90
11304;DHT22;5707;49.588;12.148;2024-03-23T07:55:20;9.60;99.90
11304;DHT22;5707;49.588;12.148;2024-03-23T07:57:46;9.60;99.90
11304;DHT22;5707;49.588;12.148;2024-03-23T08:00:13;9.60;99.90
11304;DHT22;5707;49.588;12.148;2024-03-23T08:02:39;9.60;99.90
11304;DHT22;5707;49.588;12.148;2024-03-23T08:05:05;9.60;99.90
11304;DHT22;5707;49.588;12.148;2024-03-23T08:07:31;9.50;99.90
11304;DHT22;5707;49.588;12.148;2024-03-23T08:09:56;9.60;99.90
11304;DHT22;5707;49.588;12.148;2024-03-23T08:12:24;9.70;99.90
11304;DHT22;5707;49.588;12.148;2024-03-23T08:14:49;9.80;99.90
11304;DHT22;5707;49.588;12.148;2024-03-23T08:17:15;9.80;99.90
11304;DHT22;5707;49.588;12.148;2024-03-23T08:19:42;9.90;99.90
11304;DHT22;5707;49.588;12.148;2024-03-23T08:22:08;10.00;99.90
11304;DHT22;5707;49.588;12.148;2024-03-23T08:24:34;10.00;99.90
11304;DHT22;5707;49.588;12.148;2024-03-23T08:27:00;10.10;99.90
11304;DHT22;5707;49.588;12.148;2024-03-23T08:29:25;10.20;99.90
11304;DHT22;5707;49.588;12.148;2024-03-23T08:31:51;10.30;99.90
11304;DHT22;5707;49.588;12.148;2024-03-23T08:34:17;10.40;99.90
11304;DHT22;5707;49.588;12.148;2024-03-23T08:36:42;10.40;99.90
11304;DHT22;5707;49.588;12.148;2024-03-23T08:39:08;10.30;99.90
11304;DHT22;5707;49.588;12.148;2024-03-23T08:41:34;10.50;99.90
11304;DHT22;5707;49.588;12.148;2024-03-23T08:44:00;11.00;99.90
11304;DHT22;5707;49.588;12.148;2024-03-23T08:46:25;11.60;99.90
11304;DHT22;5707;49.588;12.148;2024-03-23T08:48:51;12.00;99.90
11304;DHT22;5707;49.588;12.148;2024-03-23T08:51:18;12.20;99.90
11304;DHT22;5707;49.588;12.148;2024-03-23T08:53:44;12.00;99.90
11304;DHT22;5707;49.588;12.148;2024-03-23T08:56:10;11.70;99.90
11304;DHT22;5707;49.588;12.148;2024-03-23T08:58:37;11.30;99.90
11304;DHT22;5707;49.588;12.148;2024-03-23T09:01:09;11.10;99.90
11304;DHT22;5707;49.588;12.148;2024-03-23T09:03:35;10.90;99.90
11304;DHT22;5707;49.588;12.148;2024-03-23T09:06:08;10.80;99.90
11304;DHT22;5707;49.588;12.148;2024-03-23T09:08:34;10.90;99.90
11304;DHT22;5707;49.588;12.148;2024-03-23T09:11:04;11.10;99.90
11304;DHT22;5707;49.588;12.148;2024-03-23T09:13:35;11.50;99.90
11304;DHT22;5707;49.588;12.148;2024-03-23T09:16:01;11.70;99.90
11304;DHT22;5707;49.588;12.148;2024-03-23T09:18:26;11.80;99.90
11304;DHT22;5707;49.588;12.148;2024-03-23T09:20:52;11.80;99.90
11304;DHT22;5707;49.588;12.148;2024-03-23T09:23:20;12.20;99.90
11304;DHT22;5707;49.588;12.148;2024-03-23T09:25:46;12.60;99.90
11304;DHT22;5707;49.588;12.148;2024-03-23T09:28:11;12.70;99.90
11304;DHT22;5707;49.588;12.148;2024-03-23T09:30:37;12.50;99.90
11304;DHT22;5707;49.588;12.148;2024-03-23T09:33:09;12.10;99.90
11304;DHT22;5707;49.588;12.148;2024-03-23T09:35:39;11.60;99.90
11304;DHT22;5707;49.588;12.148;2024-03-23T09:38:05;11.40;99.90
11304;DHT22;5707;49.588;12.148;2024-03-23T09:40:32;11.50;99.90
11304;DHT22;5707;49.588;12.148;2024-03-23T09:42:58;11.70;99.90
11304;DHT22;5707;49.588;12.148;2024-03-23T09:45:28;11.90;99.90
11304;DHT22;5707;49.588;12.148;2024-03-23T09:47:57;12.10;99.90
11304;DHT22;5707;49.588;12.148;2024-03-23T09:50:23;12.50;99.90
11304;DHT22;5707;49.588;12.148;2024-03-23T09:52:49;12.80;99.90
11304;DHT22;5707;49.588;12.148;2024-03-23T09:55:15;12.60;99.90
11304;DHT22;5707;49.588;12.148;2024-03-23T09:57:41;12.30;99.90
11304;DHT22;5707;49.588;12.148;2024-03-23T10:00:07;11.90;99.90
11304;DHT22;5707;49.588;12.148;2024-03-23T10:02:34;11.50;99.90
11304;DHT22;5707;49.588;12.148;2024-03-23T10:05:00;11.20;99.90
11304;DHT22;5707;49.588;12.148;2024-03-23T10:07:26;10.90;99.90
11304;DHT22;5707;49.588;12.148;2024-03-23T10:09:54;10.60;99.90
11304;DHT22;5707;49.588;12.148;2024-03-23T10:12:21;10.50;99.90
11304;DHT22;5707;49.588;12.148;2024-03-23T10:14:47;10.70;99.90
11304;DHT22;5707;49.588;12.148;2024-03-23T10:17:14;10.90;99.90
11304;DHT22;5707;49.588;12.148;2024-03-23T10:19:41;10.80;99.90
11304;DHT22;5707;49.588;12.148;2024-03-23T10:22:08;10.50;99.90
11304;DHT22;5707;49.588;12.148;2024-03-23T10:24:34;10.20;99.90
11304;DHT22;5707;49.588;12.148;2024-03-23T10:27:00;10.40;99.90
11304;DHT22;5707;49.588;12.148;2024-03-23T10:29:26;11.10;99.90
11304;DHT22;5707;49.588;12.148;2024-03-23T10:32:07;11.50;99.90
11304;DHT22;5707;49.588;12.148;2024-03-23T10:34:32;11.70;99.90
11304;DHT22;5707;49.588;12.148;2024-03-23T10:36:58;11.80;99.90
11304;DHT22;5707;49.588;12.148;2024-03-23T10:39:25;12.00;99.90
11304;DHT22;5707;49.588;12.148;2024-03-23T10:41:52;12.50;99.90
11304;DHT22;5707;49.588;12.148;2024-03-23T10:44:19;12.60;98.60
11304;DHT22;5707;49.588;12.148;2024-03-23T10:46:45;12.50;98.30
11304;DHT22;5707;49.588;12.148;2024-03-23T10:49:10;12.30;99.20
11304;DHT22;5707;49.588;12.148;2024-03-23T10:51:37;12.10;99.90
11304;DHT22;5707;49.588;12.148;2024-03-23T10:54:04;12.00;99.60
11304;DHT22;5707;49.588;12.148;2024-03-23T10:56:35;12.10;96.50
11304;DHT22;5707;49.588;12.148;2024-03-23T10:59:02;11.80;96.70
11304;DHT22;5707;49.588;12.148;2024-03-23T11:01:31;11.40;96.50
11304;DHT22;5707;49.588;12.148;2024-03-23T11:03:56;11.20;96.10
11304;DHT22;5707;49.588;12.148;2024-03-23T11:06:38;10.90;95.30
11304;DHT22;5707;49.588;12.148;2024-03-23T11:15:03;9.90;96.50
11304;DHT22;5707;49.588;12.148;2024-03-23T11:17:30;9.60;98.10
11304;DHT22;5707;49.588;12.148;2024-03-23T11:25:15;10.50;98.70
11304;DHT22;5707;49.588;12.148;2024-03-23T11:27:42;11.30;96.90
11304;DHT22;5707;49.588;12.148;2024-03-23T11:30:16;11.60;93.20
11304;DHT22;5707;49.588;12.148;2024-03-23T11:32:46;11.40;93.50
11304;DHT22;5707;49.588;12.148;2024-03-23T11:35:28;11.20;93.90
11304;DHT22;5707;49.588;12.148;2024-03-23T11:38:14;11.40;94.00
11304;DHT22;5707;49.588;12.148;2024-03-23T11:40:44;11.70;93.50
11304;DHT22;5707;49.588;12.148;2024-03-23T11:43:16;11.90;92.60
11304;DHT22;5707;49.588;12.148;2024-03-23T11:45:49;12.00;91.30
11304;DHT22;5707;49.588;12.148;2024-03-23T11:48:20;11.70;92.20
11304;DHT22;5707;49.588;12.148;2024-03-23T11:50:48;11.30;92.10
11304;DHT22;5707;49.588;12.148;2024-03-23T11:53:18;11.20;92.40
11304;DHT22;5707;49.588;12.148;2024-03-23T11:58:14;10.60;93.20
11304;DHT22;5707;49.588;12.148;2024-03-23T12:00:40;10.60;93.10
11304;DHT22;5707;49.588;12.148;2024-03-23T12:03:06;10.70;92.50
11304;DHT22;5707;49.588;12.148;2024-03-23T12:05:32;10.60;92.60
11304;DHT22;5707;49.588;12.148;2024-03-23T12:13:17;11.70;90.50
11304;DHT22;5707;49.588;12.148;2024-03-23T12:15:44;11.30;90.10
11304;DHT22;5707;49.588;12.148;2024-03-23T12:18:09;10.80;90.70
11304;DHT22;5707;49.588;12.148;2024-03-23T12:20:39;10.60;92.70
11304;DHT22;5707;49.588;12.148;2024-03-23T12:23:13;10.90;92.40
11304;DHT22;5707;49.588;12.148;2024-03-23T12:25:39;11.50;90.50
11304;DHT22;5707;49.588;12.148;2024-03-23T12:28:06;11.90;90.00
11304;DHT22;5707;49.588;12.148;2024-03-23T12:30:41;12.20;86.60
11304;DHT22;5707;49.588;12.148;2024-03-23T12:33:07;12.40;86.50
11304;DHT22;5707;49.588;12.148;2024-03-23T12:35:32;12.60;85.30
11304;DHT22;5707;49.588;12.148;2024-03-23T12:37:58;12.30;86.70
11304;DHT22;5707;49.588;12.148;2024-03-23T12:40:24;12.20;87.10
11304;DHT22;5707;49.588;12.148;2024-03-23T12:42:49;12.10;82.30
11304;DHT22;5707;49.588;12.148;2024-03-23T12:45:15;11.70;80.30
11304;DHT22;5707;49.588;12.148;2024-03-23T12:47:41;11.80;84.80
11304;DHT22;5707;49.588;12.148;2024-03-23T12:50:07;12.00;81.90
11304;DHT22;5707;49.588;12.148;2024-03-23T12:52:33;12.40;75.50
11304;DHT22;5707;49.588;12.148;2024-03-23T12:54:58;12.30;76.30
11304;DHT22;5707;49.588;12.148;2024-03-23T12:57:24;12.10;75.90
11304;DHT22;5707;49.588;12.148;2024-03-23T12:59:51;12.30;77.20
11304;DHT22;5707;49.588;12.148;2024-03-23T13:02:19;12.20;76.30
11304;DHT22;5707;49.588;12.148;2024-03-23T13:04:46;11.70;72.90
11304;DHT22;5707;49.588;12.148;2024-03-23T13:07:12;11.10;72.70
11304;DHT22;5707;49.588;12.148;2024-03-23T13:09:38;11.00;74.20
11304;DHT22;5707;49.588;12.148;2024-03-23T13:12:03;10.90;72.60
11304;DHT22;5707;49.588;12.148;2024-03-23T13:14:29;10.80;72.60
11304;DHT22;5707;49.588;12.148;2024-03-23T13:16:54;10.60;73.40
11304;DHT22;5707;49.588;12.148;2024-03-23T13:19:20;10.40;77.40
11304;DHT22;5707;49.588;12.148;2024-03-23T13:21:45;10.30;77.20
11304;DHT22;5707;49.588;12.148;2024-03-23T13:24:11;10.20;80.40
11304;DHT22;5707;49.588;12.148;2024-03-23T13:26:36;10.50;80.80
11304;DHT22;5707;49.588;12.148;2024-03-23T13:29:02;10.80;78.60
11304;DHT22;5707;49.588;12.148;2024-03-23T13:31:28;11.00;84.20
11304;DHT22;5707;49.588;12.148;2024-03-23T13:33:53;11.30;80.40
11304;DHT22;5707;49.588;12.148;2024-03-23T13:36:19;11.10;77.10
11304;DHT22;5707;49.588;12.148;2024-03-23T13:38:44;11.00;80.50
11304;DHT22;5707;49.588;12.148;2024-03-23T13:41:10;11.10;82.10
11304;DHT22;5707;49.588;12.148;2024-03-23T13:43:38;11.20;82.90
11304;DHT22;5707;49.588;12.148;2024-03-23T13:46:03;11.20;86.40
11304;DHT22;5707;49.588;12.148;2024-03-23T13:48:29;11.20;81.80
11304;DHT22;5707;49.588;12.148;2024-03-23T13:51:02;11.10;85.80
11304;DHT22;5707;49.588;12.148;2024-03-23T13:53:28;11.30;83.00
11304;DHT22;5707;49.588;12.148;2024-03-23T13:55:54;11.60;79.50
11304;DHT22;5707;49.588;12.148;2024-03-23T13:58:20;12.00;79.30
11304;DHT22;5707;49.588;12.148;2024-03-23T14:00:45;12.30;76.90
11304;DHT22;5707;49.588;12.148;2024-03-23T14:03:11;12.40;72.70
11304;DHT22;5707;49.588;12.148;2024-03-23T14:05:37;12.10;73.60
11304;DHT22;5707;49.588;12.148;2024-03-23T14:08:05;11.90;74.10
11304;DHT22;5707;49.588;12.148;2024-03-23T14:10:30;11.90;76.90
11304;DHT22;5707;49.588;12.148;2024-03-23T14:12:56;11.90;74.10
11304;DHT22;5707;49.588;12.148;2024-03-23T14:15:21;11.90;71.80
11304;DHT22;5707;49.588;12.148;2024-03-23T14:17:47;12.20;75.40
11304;DHT22;5707;49.588;12.148;2024-03-23T14:20:12;12.50;69.40
11304;DHT22;5707;49.588;12.148;2024-03-23T14:22:38;12.70;68.60
11304;DHT22;5707;49.588;12.148;2024-03-23T14:25:06;12.40;66.70
11304;DHT22;5707;49.588;12.148;2024-03-23T14:27:32;12.40;64.60
11304;DHT22;5707;49.588;12.148;2024-03-23T14:29:58;12.40;63.50
11304;DHT22;5707;49.588;12.148;2024-03-23T14:32:23;12.40;65.90
11304;DHT22;5707;49.588;12.148;2024-03-23T14:34:49;12.50;65.40
11304;DHT22;5707;49.588;12.148;2024-03-23T14:37:14;12.50;63.90
11304;DHT22;5707;49.588;12.148;2024-03-23T14:39:41;12.50;63.60
11304;DHT22;5707;49.588;12.148;2024-03-23T14:42:07;12.60;63.40
11304;DHT22;5707;49.588;12.148;2024-03-23T14:44:35;12.50;67.00
11304;DHT22;5707;49.588;12.148;2024-03-23T14:47:01;12.40;66.00
11304;DHT22;5707;49.588;12.148;2024-03-23T14:49:27;12.30;64.30
11304;DHT22;5707;49.588;12.148;2024-03-23T14:51:52;12.10;65.40
11304;DHT22;5707;49.588;12.148;2024-03-23T14:54:18;12.00;66.20
11304;DHT22;5707;49.588;12.148;2024-03-23T14:56:43;11.80;65.90
11304;DHT22;5707;49.588;12.148;2024-03-23T14:59:09;11.30;66.00
11304;DHT22;5707;49.588;12.148;2024-03-23T15:01:34;10.90;67.10
11304;DHT22;5707;49.588;12.148;2024-03-23T15:04:00;10.60;64.60
11304;DHT22;5707;49.588;12.148;2024-03-23T15:06:26;10.40;68.30
11304;DHT22;5707;49.588;12.148;2024-03-23T15:08:51;10.40;66.70
11304;DHT22;5707;49.588;12.148;2024-03-23T15:11:17;10.50;66.10
11304;DHT22;5707;49.588;12.148;2024-03-23T15:13:45;10.40;63.40
11304;DHT22;5707;49.588;12.148;2024-03-23T15:16:17;10.20;64.10
11304;DHT22;5707;49.588;12.148;2024-03-23T15:18:45;10.30;66.20
11304;DHT22;5707;49.588;12.148;2024-03-23T15:21:10;10.60;65.30
11304;DHT22;5707;49.588;12.148;2024-03-23T15:23:37;10.80;62.60
11304;DHT22;5707;49.588;12.148;2024-03-23T15:26:03;11.00;61.20
11304;DHT22;5707;49.588;12.148;2024-03-23T15:28:31;11.00;62.70
11304;DHT22;5707;49.588;12.148;2024-03-23T15:31:09;10.90;60.40
11304;DHT22;5707;49.588;12.148;2024-03-23T15:33:35;10.70;61.60
11304;DHT22;5707;49.588;12.148;2024-03-23T15:36:01;10.60;62.50
11304;DHT22;5707;49.588;12.148;2024-03-23T15:38:27;10.50;63.60
11304;DHT22;5707;49.588;12.148;2024-03-23T15:40:54;10.40;64.10
11304;DHT22;5707;49.588;12.148;2024-03-23T15:43:20;10.40;63.20
11304;DHT22;5707;49.588;12.148;2024-03-23T15:45:57;10.20;68.90
11304;DHT22;5707;49.588;12.148;2024-03-23T15:48:23;10.10;68.30
11304;DHT22;5707;49.588;12.148;2024-03-23T15:50:53;9.90;67.50
11304;DHT22;5707;49.588;12.148;2024-03-23T15:53:23;9.60;69.10
11304;DHT22;5707;49.588;12.148;2024-03-23T15:55:56;9.40;67.40
11304;DHT22;5707;49.588;12.148;2024-03-23T15:58:22;9.30;71.30
11304;DHT22;5707;49.588;12.148;2024-03-23T16:00:55;9.20;68.90
11304;DHT22;5707;49.588;12.148;2024-03-23T16:03:21;9.10;67.40
11304;DHT22;5707;49.588;12.148;2024-03-23T16:05:51;9.00;70.20
11304;DHT22;5707;49.588;12.148;2024-03-23T16:08:17;8.80;70.40
11304;DHT22;5707;49.588;12.148;2024-03-23T16:10:42;8.80;70.50
11304;DHT22;5707;49.588;12.148;2024-03-23T16:13:08;8.70;70.10
11304;DHT22;5707;49.588;12.148;2024-03-23T16:15:33;8.60;75.20
11304;DHT22;5707;49.588;12.148;2024-03-23T16:17:59;8.50;76.40
11304;DHT22;5707;49.588;12.148;2024-03-23T16:20:24;8.40;76.00
11304;DHT22;5707;49.588;12.148;2024-03-23T16:22:50;8.40;74.90
11304;DHT22;5707;49.588;12.148;2024-03-23T16:25:15;8.30;77.90
11304;DHT22;5707;49.588;12.148;2024-03-23T16:27:41;8.20;77.80
11304;DHT22;5707;49.588;12.148;2024-03-23T16:30:07;8.10;80.00
11304;DHT22;5707;49.588;12.148;2024-03-23T16:32:33;8.00;79.40
11304;DHT22;5707;49.588;12.148;2024-03-23T16:35:03;7.90;79.00
11304;DHT22;5707;49.588;12.148;2024-03-23T16:37:28;7.70;83.20
11304;DHT22;5707;49.588;12.148;2024-03-23T16:39:54;7.60;86.00
11304;DHT22;5707;49.588;12.148;2024-03-23T16:42:19;7.50;88.10
11304;DHT22;5707;49.588;12.148;2024-03-23T16:44:46;7.40;88.10
11304;DHT22;5707;49.588;12.148;2024-03-23T16:47:12;7.30;93.90
11304;DHT22;5707;49.588;12.148;2024-03-23T16:49:38;6.70;99.90